createdAt,value
2022-08-09T00:00:07.070Z,3.3
2022-08-09T00:06:22.613Z,3
2022-08-09T00:10:24.431Z,3.3
2022-08-09T00:15:19.186Z,3.1
2022-08-09T00:20:23.578Z,3
2022-08-09T00:25:34.036Z,2.9
2022-08-09T00:30:39.298Z,2.9
2022-08-09T00:35:44.643Z,2.8
2022-08-09T00:40:54.417Z,2.8
2022-08-09T00:45:55.102Z,3.1
2022-08-09T00:51:00.719Z,3.2
2022-08-09T00:56:11.098Z,3
2022-08-09T01:01:06.377Z,3
2022-08-09T01:06:19.403Z,2.9
2022-08-09T01:11:16.025Z,3.2
2022-08-09T01:16:20.954Z,3
2022-08-09T01:21:44.902Z,3.1
2022-08-09T01:26:31.736Z,3
2022-08-09T01:32:33.968Z,2.9
2022-08-09T01:36:40.345Z,2.9
2022-08-09T01:42:04.070Z,3
2022-08-09T01:46:48.030Z,2.8
2022-08-09T01:51:54.894Z,2.8
2022-08-09T01:56:52.509Z,2.9
2022-08-09T02:02:01.657Z,2.8
2022-08-09T02:07:06.609Z,2.8
2022-08-09T02:12:18.156Z,2.8
2022-08-09T02:18:10.108Z,2.5
2022-08-09T02:22:38.587Z,3
2022-08-09T02:27:58.451Z,2.8
2022-08-09T02:32:30.653Z,2.8
2022-08-09T02:37:37.751Z,2.9
2022-08-09T02:42:36.820Z,3
2022-08-09T02:47:59.486Z,2.9
2022-08-09T02:52:44.615Z,3.1
2022-08-09T02:58:37.372Z,3
2022-08-09T03:03:01.220Z,3
2022-08-09T03:08:05.354Z,3.4
2022-08-09T03:13:10.877Z,3.3
2022-08-09T03:18:31.628Z,3.1
2022-08-09T03:23:25.646Z,3.1
2022-08-09T03:28:21.882Z,3.3
2022-08-09T03:33:25.896Z,3.3
2022-08-09T03:38:31.326Z,3.1
2022-08-09T03:43:34.206Z,3.7
2022-08-09T03:48:52.475Z,3.4
2022-08-09T03:53:46.723Z,3.5
2022-08-09T03:58:55.490Z,3.3
2022-08-09T04:04:06.954Z,3.3
2022-08-09T04:09:53.061Z,3.6
2022-08-09T04:14:54.306Z,3.3
2022-08-09T04:19:51.367Z,3.4
2022-08-09T04:24:27.892Z,3.3
2022-08-09T04:29:30.812Z,3.2
2022-08-09T04:34:32.801Z,3.2
2022-08-09T04:39:32.067Z,3
2022-08-09T04:44:31.175Z,3.2
2022-08-09T04:49:55.764Z,4.2
2022-08-09T04:54:38.698Z,4.6
2022-08-09T04:59:41.344Z,4
2022-08-09T05:04:56.478Z,2.8
2022-08-09T05:10:03.263Z,3.1
2022-08-09T05:15:24.506Z,3.1
2022-08-09T05:20:07.093Z,3
2022-08-09T05:25:10.104Z,2.8
2022-08-09T05:30:15.220Z,2.7
2022-08-09T05:35:23.243Z,3.5
2022-08-09T05:40:26.825Z,3.1
2022-08-09T05:45:57.281Z,3.5
2022-08-09T05:51:11.940Z,2.6
2022-08-09T05:55:38.127Z,2.9
2022-08-09T06:00:41.697Z,21.2
2022-08-09T06:05:57.984Z,40.7
2022-08-09T06:10:52.359Z,47.8
2022-08-09T06:15:56.369Z,126.2
2022-08-09T06:21:05.539Z,36.4
2022-08-09T06:26:10.656Z,72.4
2022-08-09T06:31:13.743Z,80.6
2022-08-09T06:36:16.370Z,68.8
2022-08-09T06:41:21.464Z,517.1
2022-08-09T06:46:41.978Z,663.9
2022-08-09T06:51:28.891Z,657.2
2022-08-09T06:56:32.817Z,647.8
2022-08-09T07:01:58.162Z,410.6
2022-08-09T07:06:36.873Z,9.9
2022-08-09T07:11:53.439Z,447.4
2022-08-09T07:16:53.595Z,636
2022-08-09T07:21:57.965Z,505.7
2022-08-09T07:26:53.558Z,465.5
2022-08-09T07:31:58.693Z,421.7
2022-08-09T07:37:03.800Z,420.3
2022-08-09T07:42:07.390Z,496.9
2022-08-09T07:47:10.920Z,2.7
2022-08-09T07:52:19.029Z,2.5
2022-08-09T07:57:35.705Z,2.6
2022-08-09T08:02:30.244Z,2.7
2022-08-09T08:09:05.220Z,2.9
2022-08-09T08:12:42.387Z,3.3
2022-08-09T08:17:58.087Z,3.1
2022-08-09T08:22:41.768Z,2.8
2022-08-09T08:27:50.836Z,2.9
2022-08-09T08:32:55.470Z,2.7
2022-08-09T08:38:11.686Z,3.6
2022-08-09T08:43:14.109Z,544.9
2022-08-09T08:48:06.742Z,466.7
2022-08-09T08:53:21.534Z,480.9
2022-08-09T08:58:18.095Z,461.8
2022-08-09T09:03:37.405Z,448.2
2022-08-09T09:08:38.239Z,414.5
2022-08-09T09:13:55.918Z,511.9
2022-08-09T09:18:42.420Z,458.9
2022-08-09T09:23:40.089Z,528.1
2022-08-09T09:29:11.434Z,514.7
2022-08-09T09:33:57.866Z,488.1
2022-08-09T09:38:52.559Z,456.6
2022-08-09T09:44:15.561Z,479.3
2022-08-09T09:49:02.569Z,525
2022-08-09T09:54:21.342Z,516.1
2022-08-09T09:59:17.116Z,544.1
2022-08-09T10:04:23.176Z,537.4
2022-08-09T10:09:25.161Z,507.9
2022-08-09T10:14:34.733Z,538
2022-08-09T10:19:40.584Z,502
2022-08-09T10:24:43.891Z,532.7
2022-08-09T10:34:51.143Z,435.2
2022-08-09T10:39:56.266Z,534.2
2022-08-09T10:45:02.474Z,667.8
2022-08-09T10:50:14.602Z,628.2
2022-08-09T10:55:12.262Z,314.9
2022-08-09T11:00:23.141Z,16
2022-08-09T11:05:31.176Z,8.6
2022-08-09T11:10:33.519Z,4.2
2022-08-09T11:15:38.581Z,3.3
2022-08-09T11:20:34.133Z,3.8
2022-08-09T11:25:49.454Z,5.4
2022-08-09T11:30:49.084Z,29.2
2022-08-09T11:35:55.052Z,56.1
2022-08-09T11:40:59.814Z,129.8
2022-08-09T11:46:03.136Z,57.1
2022-08-09T11:53:15.419Z,40.2
2022-08-09T11:56:20.244Z,543
2022-08-09T12:02:34.982Z,194.9
2022-08-09T12:06:32.304Z,8.3
2022-08-09T12:11:27.820Z,8.8
2022-08-09T12:16:39.892Z,28.7
2022-08-09T12:21:51.430Z,14
2022-08-09T12:29:33.803Z,66.9
2022-08-09T12:37:22.059Z,820.2
2022-08-09T12:42:01.549Z,67.7
2022-08-09T12:47:05.850Z,8.7
2022-08-09T12:52:14.006Z,7.3
2022-08-09T12:57:20.040Z,9.8
2022-08-09T13:02:27.354Z,6.9
2022-08-09T13:07:52.617Z,8.6
2022-08-09T13:13:10.389Z,156.8
2022-08-09T13:18:09.704Z,325
2022-08-09T13:24:17.668Z,397.2
2022-08-09T13:27:57.635Z,381.8
2022-08-09T13:33:04.186Z,165.6
2022-08-09T13:38:54.762Z,186.8
2022-08-09T13:48:12.135Z,700.7
2022-08-09T13:53:17.488Z,295
2022-08-09T13:58:22.204Z,328.3
2022-08-09T14:04:11.431Z,344.2
2022-08-09T14:08:34.150Z,414.3
2022-08-09T14:14:29.035Z,275.1
2022-08-09T14:18:37.632Z,129.4
2022-08-09T14:23:56.821Z,163.7
2022-08-09T14:28:49.327Z,69.8
2022-08-09T14:33:55.800Z,314.2
2022-08-09T14:38:59.814Z,371.4
2022-08-09T14:44:12.207Z,362.3
2022-08-09T14:49:16.321Z,443.6
2022-08-09T14:54:16.602Z,618
2022-08-09T14:59:22.161Z,627.1
2022-08-09T15:04:29.998Z,596.9
2022-08-09T15:10:14.137Z,605.5
2022-08-09T15:14:39.940Z,567.4
2022-08-09T15:20:02.574Z,614.1
2022-08-09T15:24:48.670Z,496
2022-08-09T15:31:07.403Z,544.2
2022-08-09T15:35:00.679Z,541.7
2022-08-09T15:40:12.619Z,530.6
2022-08-09T15:45:06.056Z,571.2
2022-08-09T15:50:13.947Z,447.6
2022-08-09T15:55:20.944Z,327.5
2022-08-09T16:00:31.880Z,230.2
2022-08-09T16:05:56.001Z,164.3
2022-08-09T16:10:56.946Z,110.9
2022-08-09T16:16:18.328Z,84.6
2022-08-09T16:20:49.135Z,55.5
2022-08-09T16:25:51.420Z,49.3
2022-08-09T16:31:00.127Z,43.2
2022-08-09T16:36:02.030Z,75
2022-08-09T16:41:04.908Z,27.2
2022-08-09T16:46:05.333Z,21.4
2022-08-09T16:51:15.065Z,23.5
2022-08-09T16:56:17.643Z,20.8
2022-08-09T17:01:25.778Z,19.9
2022-08-09T17:06:47.459Z,19.1
2022-08-09T17:11:42.495Z,7.7
2022-08-09T17:16:28.724Z,10.8
2022-08-09T17:21:39.530Z,12.6
2022-08-09T17:26:53.716Z,13.8
2022-08-09T17:31:59.743Z,16.6
2022-08-09T17:37:03.592Z,16.2
2022-08-09T17:42:42.629Z,15.5
2022-08-09T17:47:11.677Z,13.4
2022-08-09T17:52:33.483Z,16.9
2022-08-09T17:58:05.570Z,13.2
2022-08-09T18:02:33.193Z,9.7
2022-08-09T18:07:35.363Z,13.5
2022-08-09T18:13:55.804Z,16.9
2022-08-09T18:18:07.860Z,13.4
2022-08-09T18:22:55.259Z,18.1
2022-08-09T18:28:07.710Z,16
2022-08-09T18:33:16.589Z,5.2
2022-08-09T18:38:14.854Z,8.1
2022-08-09T18:43:17.511Z,9.8
2022-08-09T18:48:32.833Z,15.1
2022-08-09T18:53:57.116Z,14.3
2022-08-09T18:58:34.202Z,15.9
2022-08-09T19:04:01.893Z,30.1
2022-08-09T19:08:30.685Z,24.5
2022-08-09T19:13:51.644Z,55.7
2022-08-09T19:18:43.899Z,65.3
2022-08-09T19:25:07.363Z,92.7
2022-08-09T19:28:49.996Z,23
2022-08-09T19:33:53.417Z,102
2022-08-09T19:38:56.925Z,124.9
2022-08-09T19:44:03.405Z,56.9
2022-08-09T19:50:48.713Z,24.1
2022-08-09T19:54:10.692Z,8.8
2022-08-09T20:00:07.119Z,24.1
2022-08-09T20:04:40.630Z,16.4
2022-08-09T20:09:46.528Z,22.6
2022-08-09T20:14:31.501Z,76
2022-08-09T20:19:54.071Z,94.1
2022-08-09T20:24:41.734Z,325.4
2022-08-09T20:29:42.806Z,228.8
2022-08-09T20:34:50.095Z,303.4
2022-08-09T20:40:19.353Z,267
2022-08-09T20:46:33.630Z,260.4
2022-08-09T20:50:07.166Z,207.8
2022-08-09T20:55:10.737Z,318.7
2022-08-09T21:00:32.011Z,347.9
2022-08-09T21:05:59.608Z,350.6
2022-08-09T21:10:31.602Z,330.5
2022-08-09T21:15:54.439Z,334.8
2022-08-09T21:20:43.180Z,362.5
2022-08-09T21:26:00.376Z,285.4
2022-08-09T21:30:54.905Z,236.6
2022-08-09T21:36:00.164Z,238.2
2022-08-09T21:41:00.823Z,269.5
2022-08-09T21:46:12.016Z,271.6
2022-08-09T21:51:36.045Z,282.2
2022-08-09T21:56:54.315Z,157.5
2022-08-09T22:02:01.858Z,231.2
2022-08-09T22:06:35.795Z,233.4
2022-08-09T22:12:24.653Z,256.8
2022-08-09T22:16:44.381Z,151.2
2022-08-09T22:21:52.093Z,231.2
2022-08-09T22:26:58.005Z,259.1
2022-08-09T22:32:00.497Z,270
2022-08-09T22:37:03.050Z,210.2
2022-08-09T22:42:03.171Z,218.8
2022-08-09T22:48:34.638Z,135.4
2022-08-09T22:52:10.974Z,26.6
2022-08-09T22:57:22.575Z,45.1
2022-08-09T23:02:30.111Z,32.4
2022-08-09T23:08:30.574Z,42.4
2022-08-09T23:12:34.739Z,21.1
2022-08-09T23:17:37.382Z,46.8
2022-08-09T23:22:39.932Z,41.5
2022-08-09T23:28:16.249Z,36.4
2022-08-09T23:32:48.794Z,39.2
2022-08-09T23:37:51.251Z,43.4
2022-08-09T23:42:53.534Z,74.4
2022-08-09T23:47:56.080Z,48.2
2022-08-09T23:52:58.815Z,44.6
2022-08-09T23:58:24.206Z,47.5
